Time;durP1;ratioP1;P1;durP2;ratioP2;P2;SDS_P1;SDS_P2;PMS_P1;PMS_P2;Temp;Humidity;BMP_temperature;BMP_pressure;BME280_temperature;BME280_humidity;BME280_pressure;Samples;Min_cycle;Max_cycle;Signal;HPM_P1;HPM_P2
2021/01/30 00:00:13;;;;;;;19.33;17.02;;;26.00;99.90;;;;;;5093752;28;20334;-51
2021/01/30 00:02:40;;;;;;;17.63;15.98;;;26.00;99.90;;;;;;5093854;28;20230;-53
2021/01/30 00:05:09;;;;;;;19.38;15.95;;;25.90;99.90;;;;;;5094054;28;20052;-54
2021/01/30 00:07:36;;;;;;;17.05;15.55;;;26.00;99.90;;;;;;5093869;28;20023;-53
2021/01/30 00:10:05;;;;;;;16.58;15.02;;;26.00;99.90;;;;;;5093985;28;20372;-54
2021/01/30 00:12:32;;;;;;;16.65;15.07;;;26.00;99.90;;;;;;5094340;28;20062;-48
2021/01/30 00:14:59;;;;;;;17.70;16.20;;;25.90;99.90;;;;;;5093677;28;20039;-55
2021/01/30 00:17:27;;;;;;;14.40;13.35;;;25.80;99.90;;;;;;5093738;28;20386;-53
2021/01/30 00:19:54;;;;;;;15.07;13.98;;;25.70;99.90;;;;;;5093680;28;20027;-53
2021/01/30 00:22:22;;;;;;;13.13;12.23;;;25.60;99.90;;;;;;5093961;28;20035;-65
2021/01/30 00:24:50;;;;;;;14.05;12.98;;;25.70;99.90;;;;;;5093658;28;20492;-55
2021/01/30 00:27:20;;;;;;;14.85;13.90;;;25.70;99.90;;;;;;5093280;28;20045;-55
2021/01/30 00:29:49;;;;;;;14.95;13.85;;;25.80;99.90;;;;;;5093764;28;20065;-56
2021/01/30 00:32:19;;;;;;;16.35;15.05;;;25.80;99.90;;;;;;5096990;28;20111;-55
2021/01/30 00:34:48;;;;;;;14.10;13.20;;;25.90;99.90;;;;;;5097782;28;20032;-56
2021/01/30 00:37:22;;;;;;;14.27;13.25;;;25.80;99.90;;;;;;5097598;28;20169;-55
2021/01/30 00:39:52;;;;;;;14.68;13.65;;;25.70;99.90;;;;;;5097220;28;20047;-54
2021/01/30 00:42:22;;;;;;;14.77;13.98;;;25.60;99.90;;;;;;5097438;28;20107;-62
2021/01/30 00:44:49;;;;;;;15.68;14.57;;;25.60;99.90;;;;;;5097761;28;20063;-56
2021/01/30 00:47:17;;;;;;;15.15;14.25;;;25.50;99.90;;;;;;5097445;28;20027;-54
2021/01/30 00:49:45;;;;;;;15.32;14.43;;;25.50;99.90;;;;;;5097270;28;20027;-55
2021/01/30 00:52:13;;;;;;;18.10;17.10;;;25.50;99.90;;;;;;5096685;28;20102;-56
2021/01/30 00:54:41;;;;;;;18.38;17.38;;;25.60;99.90;;;;;;5096656;28;20062;-55
2021/01/30 00:57:09;;;;;;;17.88;16.90;;;25.70;99.90;;;;;;5096632;28;20020;-53
2021/01/30 00:59:36;;;;;;;17.25;16.25;;;25.70;99.90;;;;;;5096581;28;20024;-56
2021/01/30 01:02:04;;;;;;;17.10;16.05;;;25.80;99.90;;;;;;5096831;28;20090;-56
2021/01/30 01:04:31;;;;;;;15.77;14.98;;;25.70;99.90;;;;;;5096626;28;20391;-55
2021/01/30 01:06:59;;;;;;;18.40;17.35;;;25.80;99.90;;;;;;5096641;28;20013;-54
2021/01/30 01:09:26;;;;;;;16.88;15.77;;;25.80;99.90;;;;;;5096565;28;20024;-55
2021/01/30 01:11:54;;;;;;;16.88;15.98;;;25.90;99.90;;;;;;5096376;28;20422;-54
2021/01/30 01:14:23;;;;;;;17.45;16.45;;;25.80;99.90;;;;;;5096505;28;20020;-55
2021/01/30 01:16:51;;;;;;;17.35;16.33;;;25.90;99.90;;;;;;5096392;28;20215;-55
2021/01/30 01:19:18;;;;;;;17.58;16.58;;;26.10;99.90;;;;;;5096221;28;20028;-56
2021/01/30 01:21:53;;;;;;;16.80;15.70;;;26.20;99.90;;;;;;5096249;28;20016;-56
2021/01/30 01:24:22;;;;;;;16.65;15.65;;;26.50;99.90;;;;;;5096338;28;20384;-53
2021/01/30 01:26:50;;;;;;;15.30;14.50;;;26.70;99.90;;;;;;5096235;28;20027;-57
2021/01/30 01:29:21;;;;;;;16.58;15.57;;;26.80;99.90;;;;;;5096276;28;20066;-56
2021/01/30 01:31:54;;;;;;;;;;;27.00;99.90;;;;;;5096624;28;20362;-56
2021/01/30 01:34:27;;;;;;;16.27;15.38;;;27.30;99.90;;;;;;5095953;28;19966;-56
2021/01/30 01:37:04;;;;;;;15.15;14.25;;;27.60;99.90;;;;;;5096323;28;20027;-55
2021/01/30 01:39:33;;;;;;;15.93;14.85;;;27.80;99.90;;;;;;5095982;28;20381;-56
2021/01/30 01:42:21;;;;;;;15.77;14.63;;;27.90;99.90;;;;;;5095379;28;20028;-57
2021/01/30 01:44:50;;;;;;;15.40;14.35;;;27.90;99.90;;;;;;5095766;28;20477;-56
2021/01/30 01:47:20;;;;;;;14.18;13.32;;;28.00;99.90;;;;;;5095904;28;20062;-52
2021/01/30 01:49:50;;;;;;;14.30;13.40;;;28.10;99.90;;;;;;5095802;28;20017;-56
2021/01/30 01:52:24;;;;;;;13.63;12.93;;;28.20;99.90;;;;;;5095681;28;20570;-58
2021/01/30 01:54:59;;;;;;;15.20;14.18;;;28.10;99.90;;;;;;5095648;28;20123;-55
2021/01/30 01:57:27;;;;;;;15.27;14.27;;;28.00;99.90;;;;;;5094160;28;20024;-56
2021/01/30 01:59:56;;;;;;;14.57;13.77;;;28.00;99.90;;;;;;5095524;28;20131;-55
2021/01/30 02:02:30;;;;;;;14.57;13.77;;;27.90;99.90;;;;;;5095264;28;20518;-56
2021/01/30 02:05:06;;;;;;;13.60;12.90;;;28.00;99.90;;;;;;5095589;28;20027;-55
2021/01/30 02:07:44;;;;;;;15.45;14.50;;;28.00;99.90;;;;;;5095376;28;20469;-57
2021/01/30 02:10:16;;;;;;;14.77;14.02;;;28.00;99.90;;;;;;5095702;28;20103;-56
2021/01/30 02:12:46;;;;;;;15.30;14.60;;;28.00;99.90;;;;;;5095366;28;20020;-57
2021/01/30 02:15:17;;;;;;;14.00;13.00;;;28.10;99.90;;;;;;5095193;28;20035;-57
2021/01/30 02:18:08;;;;;;;13.20;12.50;;;28.10;99.90;;;;;;5095222;28;20028;-56
2021/01/30 02:21:12;;;;;;;13.25;12.35;;;28.10;99.90;;;;;;5095080;28;20055;-56
2021/01/30 02:24:14;;;;;;;11.70;11.10;;;28.00;99.90;;;;;;5095072;28;20032;-57
2021/01/30 02:27:11;;;;;;;14.90;14.10;;;28.00;99.90;;;;;;5063440;28;20405;-59
2021/01/30 02:30:06;;;;;;;12.25;11.55;;;27.90;99.90;;;;;;5095040;28;20016;-57
2021/01/30 02:32:46;;;;;;;12.32;11.63;;;27.60;99.90;;;;;;5094979;28;20440;-56
2021/01/30 02:35:13;;;;;;;;;;;27.40;99.90;;;;;;5095332;28;20024;-57
2021/01/30 02:37:45;;;;;;;14.65;13.75;;;27.30;99.90;;;;;;5094620;28;19904;-55
2021/01/30 02:40:18;;;;;;;13.30;12.55;;;27.30;99.90;;;;;;5093213;28;20039;-53
2021/01/30 02:43:18;;;;;;;13.68;12.82;;;27.50;99.90;;;;;;5094618;28;20024;-56
2021/01/30 02:46:01;;;;;;;11.85;11.05;;;27.90;99.90;;;;;;5094738;28;20097;-53
2021/01/30 02:48:41;;;;;;;12.10;11.48;;;27.70;99.90;;;;;;5094680;28;20032;-53
2021/01/30 02:51:12;;;;;;;13.65;12.60;;;27.70;99.90;;;;;;5094652;28;20020;-53
2021/01/30 02:53:51;;;;;;;13.43;12.70;;;27.70;99.90;;;;;;5094663;28;20028;-56
2021/01/30 02:56:20;;;;;;;13.63;12.88;;;27.90;99.90;;;;;;5094451;28;20028;-54
2021/01/30 02:59:16;;;;;;;13.73;12.93;;;27.90;99.90;;;;;;5094454;28;20051;-55
2021/01/30 03:01:44;;;;;;;12.25;11.55;;;27.90;99.90;;;;;;5092607;28;20051;-56
2021/01/30 03:04:19;;;;;;;11.93;11.27;;;28.00;99.90;;;;;;5094377;28;20027;-55
2021/01/30 03:07:01;;;;;;;10.77;10.20;;;28.00;99.90;;;;;;5094191;28;20016;-56
2021/01/30 03:09:33;;;;;;;12.00;11.25;;;28.00;99.90;;;;;;5094207;28;20466;-57
2021/01/30 03:12:12;;;;;;;10.38;9.77;;;27.90;99.90;;;;;;5094038;28;20024;-56
2021/01/30 03:15:03;;;;;;;11.60;10.80;;;27.90;99.90;;;;;;5094179;28;20035;-60
2021/01/30 03:17:32;;;;;;;8.98;8.57;;;27.90;99.90;;;;;;5094165;28;20105;-57
2021/01/30 03:20:01;;;;;;;11.10;10.40;;;27.90;99.90;;;;;;5094071;28;20020;-57
2021/01/30 03:22:32;;;;;;;11.70;11.00;;;27.90;99.90;;;;;;5093872;28;20039;-57
2021/01/30 03:25:01;;;;;;;10.70;10.15;;;27.90;99.90;;;;;;5093923;28;20023;-55
2021/01/30 03:27:31;;;;;;;9.25;8.75;;;28.00;99.90;;;;;;5093798;28;20024;-55
2021/01/30 03:30:00;;;;;;;8.55;8.05;;;28.20;99.90;;;;;;5093863;28;20093;-54
2021/01/30 03:32:29;;;;;;;8.60;8.10;;;28.20;99.90;;;;;;5094048;28;20024;-55
2021/01/30 03:34:58;;;;;;;7.85;7.43;;;28.40;99.90;;;;;;5093933;28;20040;-57
2021/01/30 03:37:25;;;;;;;7.80;7.40;;;28.40;99.90;;;;;;5093753;28;20033;-57
2021/01/30 03:39:53;;;;;;;8.88;8.38;;;28.60;99.90;;;;;;5093573;28;20132;-56
2021/01/30 03:42:20;;;;;;;9.00;8.40;;;28.80;99.90;;;;;;5093320;28;20024;-56
2021/01/30 03:44:48;;;;;;;7.97;7.47;;;29.10;99.90;;;;;;5093212;28;20032;-57
2021/01/30 03:47:15;;;;;;;6.13;5.70;;;29.50;99.90;;;;;;5093254;28;20477;-57
2021/01/30 03:49:43;;;;;;;7.22;6.20;;;29.70;99.90;;;;;;5093353;28;20077;-57
2021/01/30 03:52:10;;;;;;;9.20;8.45;;;29.90;99.90;;;;;;5093509;28;20648;-52
2021/01/30 03:54:37;;;;;;;8.07;7.63;;;30.00;99.90;;;;;;5093380;28;20024;-52
2021/01/30 03:57:05;;;;;;;9.50;8.60;;;29.90;99.90;;;;;;5093342;28;20016;-51
2021/01/30 03:59:34;;;;;;;18.48;12.52;;;30.20;99.90;;;;;;5093448;28;20433;-53
2021/01/30 04:02:01;;;;;;;12.57;11.27;;;30.30;99.90;;;;;;5093342;28;20102;-54
2021/01/30 04:12:14;;;;;;;13.93;9.35;;;30.90;99.90;;;;;;5187520;22;20276;-61
2021/01/30 04:14:42;;;;;;;13.07;8.85;;;31.00;99.90;;;;;;5053060;28;20017;-60
2021/01/30 04:17:09;;;;;;;7.18;6.72;;;30.80;99.90;;;;;;5053042;28;20387;-61
2021/01/30 04:19:38;;;;;;;7.40;6.80;;;30.70;99.90;;;;;;5053145;28;20028;-69
2021/01/30 04:22:06;;;;;;;8.07;7.47;;;30.30;99.90;;;;;;5052948;28;20025;-64
2021/01/30 04:24:33;;;;;;;7.75;6.97;;;30.30;99.90;;;;;;5052977;28;20362;-64
2021/01/30 04:27:01;;;;;;;7.53;6.63;;;30.20;99.90;;;;;;5053120;28;20066;-64
2021/01/30 04:29:28;;;;;;;8.40;7.60;;;30.00;99.90;;;;;;5053007;28;20037;-64
2021/01/30 04:31:58;;;;;;;8.50;7.72;;;30.00;99.90;;;;;;5053079;28;20483;-64
2021/01/30 04:34:25;;;;;;;;;;;30.20;99.90;;;;;;5053501;28;20021;-57
2021/01/30 04:36:52;;;;;;;12.38;8.40;;;30.60;99.90;;;;;;5051419;28;19944;-67
2021/01/30 04:39:20;;;;;;;6.90;6.35;;;31.30;99.90;;;;;;5052872;28;20021;-65
2021/01/30 04:41:58;;;;;;;6.20;5.63;;;31.60;99.90;;;;;;5052840;28;20043;-62
2021/01/30 04:44:46;;;;;;;6.20;5.70;;;31.40;99.90;;;;;;5052764;28;20047;-65
2021/01/30 04:47:36;;;;;;;5.90;5.50;;;31.00;99.90;;;;;;5053039;28;20029;-63
2021/01/30 04:50:15;;;;;;;6.22;5.63;;;30.90;99.90;;;;;;5053018;28;20063;-60
2021/01/30 04:53:05;;;;;;;6.22;5.72;;;30.90;99.90;;;;;;5052754;28;20025;-58
2021/01/30 04:55:40;;;;;;;6.07;5.70;;;30.90;99.90;;;;;;5045302;28;20044;-63
2021/01/30 04:58:30;;;;;;;5.47;5.13;;;31.20;99.90;;;;;;5053083;28;20040;-57
2021/01/30 05:01:10;;;;;;;4.82;4.43;;;31.20;99.90;;;;;;5052809;28;20388;-59
2021/01/30 05:03:55;;;;;;;4.53;4.32;;;31.30;99.90;;;;;;5052647;28;20039;-57
2021/01/30 05:06:49;;;;;;;5.03;4.47;;;31.50;99.90;;;;;;5052657;28;20025;-58
2021/01/30 05:09:45;;;;;;;4.72;4.40;;;31.70;99.90;;;;;;5052676;28;20017;-62
2021/01/30 05:12:27;;;;;;;6.18;5.57;;;32.10;99.90;;;;;;5048613;28;20055;-60
2021/01/30 05:15:04;;;;;;;7.45;6.65;;;32.40;99.90;;;;;;5052627;28;20052;-60
2021/01/30 05:17:37;;;;;;;11.40;7.30;;;32.80;99.90;;;;;;5053150;28;20048;-63
2021/01/30 05:20:09;;;;;;;9.98;7.35;;;33.30;99.90;;;;;;5056226;28;20029;-61
2021/01/30 05:22:41;;;;;;;9.95;7.55;;;33.50;99.90;;;;;;5055946;28;20029;-61
2021/01/30 05:25:11;;;;;;;10.95;6.80;;;33.50;99.90;;;;;;5056106;28;20029;-62
2021/01/30 05:28:07;;;;;;;8.90;6.50;;;33.80;99.90;;;;;;5054567;28;20021;-61
2021/01/30 05:30:40;;;;;;;10.20;6.20;;;34.20;99.90;;;;;;5047819;28;20033;-61
2021/01/30 05:33:27;;;;;;;8.05;5.40;;;34.70;99.90;;;;;;5054547;28;20025;-61
2021/01/30 05:36:24;;;;;;;7.20;6.38;;;34.90;99.90;;;;;;5055754;28;20040;-61
2021/01/30 05:39:12;;;;;;;7.30;5.38;;;35.10;99.90;;;;;;5055654;28;20021;-61
2021/01/30 05:41:57;;;;;;;8.77;6.25;;;35.20;99.90;;;;;;5055714;28;20423;-61
2021/01/30 05:44:46;;;;;;;9.20;6.13;;;34.90;99.90;;;;;;5055610;28;20021;-61
2021/01/30 05:47:30;;;;;;;8.95;6.43;;;34.50;99.90;;;;;;5055481;28;20017;-61
2021/01/30 05:50:25;;;;;;;8.68;6.88;;;34.50;99.90;;;;;;5055498;28;20377;-61
2021/01/30 05:52:53;;;;;;;9.75;6.55;;;34.30;99.90;;;;;;5055464;28;20384;-61
2021/01/30 05:55:23;;;;;;;15.73;6.63;;;34.70;99.90;;;;;;5055313;28;20051;-62
2021/01/30 05:57:50;;;;;;;;;;;34.90;99.90;;;;;;5055680;28;20106;-62
2021/01/30 06:00:21;;;;;;;11.02;6.60;;;35.20;99.90;;;;;;5055420;28;19904;-62
2021/01/30 06:03:10;;;;;;;6.05;5.43;;;35.70;99.90;;;;;;5054891;28;20507;-63
2021/01/30 06:05:47;;;;;;;11.02;6.07;;;35.80;99.90;;;;;;5055452;28;20040;-62
2021/01/30 06:08:33;;;;;;;5.95;5.00;;;36.00;99.90;;;;;;5053896;28;20037;-61
2021/01/30 06:11:14;;;;;;;9.05;5.88;;;36.00;99.90;;;;;;5054992;28;20112;-60
2021/01/30 06:14:03;;;;;;;8.50;6.22;;;35.90;99.90;;;;;;5055137;28;20025;-62
2021/01/30 06:16:41;;;;;;;7.75;6.32;;;35.90;99.90;;;;;;5054936;28;20488;-63
2021/01/30 06:19:24;;;;;;;7.85;6.03;;;36.00;99.90;;;;;;5054957;28;20108;-59
2021/01/30 06:22:14;;;;;;;8.38;6.18;;;35.70;99.90;;;;;;5055200;28;20476;-59
2021/01/30 06:24:45;;;;;;;9.13;6.00;;;35.70;99.90;;;;;;5055035;28;20522;-62
2021/01/30 06:27:30;;;;;;;6.80;5.70;;;35.80;99.90;;;;;;5054767;28;20025;-62
2021/01/30 06:30:14;;;;;;;7.55;4.20;;;36.10;99.90;;;;;;5054406;28;20075;-62
2021/01/30 06:32:55;;;;;;;9.48;4.18;;;36.40;99.90;;;;;;5054700;28;20032;-62
2021/01/30 06:35:27;;;;;;;7.05;4.18;;;36.40;99.90;;;;;;5054841;28;20025;-62
2021/01/30 06:38:04;;;;;;;8.48;5.38;;;35.50;99.90;;;;;;5054759;28;20017;-62
2021/01/30 06:40:36;;;;;;;11.52;5.18;;;34.80;99.90;;;;;;5054701;28;20119;-62
2021/01/30 06:43:26;;;;;;;9.48;4.53;;;34.40;99.90;;;;;;5054496;28;20028;-62
2021/01/30 06:46:05;;;;;;;7.53;4.47;;;34.50;99.90;;;;;;5040549;28;20041;-62
2021/01/30 06:48:45;;;;;;;8.00;4.97;;;35.20;99.90;;;;;;5054377;28;20036;-63
2021/01/30 06:51:24;;;;;;;7.15;4.82;;;35.60;99.90;;;;;;5054343;28;20021;-63
2021/01/30 06:53:52;;;;;;;7.13;5.05;;;35.70;99.90;;;;;;5054264;28;20388;-63
2021/01/30 06:56:33;;;;;;;7.10;5.20;;;36.20;99.90;;;;;;5053002;28;20028;-62
2021/01/30 06:59:11;;;;;;;5.75;4.70;;;36.50;99.90;;;;;;5054474;28;20033;-63
2021/01/30 07:01:45;;;;;;;11.85;4.50;;;36.90;99.90;;;;;;5054307;28;20017;-62
2021/01/30 07:04:42;;;;;;;9.13;4.55;;;36.60;99.90;;;;;;5054007;28;20040;-63
2021/01/30 07:07:18;;;;;;;7.63;4.38;;;36.90;99.80;;;;;;5054023;28;20021;-63
2021/01/30 07:10:12;;;;;;;8.13;4.35;;;37.00;99.90;;;;;;5054101;28;20021;-64
2021/01/30 07:13:04;;;;;;;8.32;5.22;;;37.30;99.90;;;;;;5052294;28;20087;-63
2021/01/30 07:15:47;;;;;;;9.63;5.13;;;37.60;99.70;;;;;;5054023;28;20070;-63
2021/01/30 07:18:31;;;;;;;7.55;5.15;;;38.10;98.90;;;;;;5053879;28;20030;-63
2021/01/30 07:21:02;;;;;;;10.07;5.25;;;38.00;98.50;;;;;;5053645;28;20024;-65
2021/01/30 07:23:44;;;;;;;8.35;5.03;;;37.50;99.10;;;;;;5053590;28;20505;-62
2021/01/30 07:26:34;;;;;;;10.00;4.20;;;36.40;99.80;;;;;;5053668;28;20021;-63
2021/01/30 07:29:10;;;;;;;11.00;5.65;;;35.20;99.90;;;;;;5053825;28;20013;-62
2021/01/30 07:32:22;;;;;;;11.95;5.55;;;34.30;99.90;;;;;;5053678;28;20381;-62
2021/01/30 07:35:32;;;;;;;8.00;5.25;;;33.10;99.90;;;;;;5053519;28;20393;-62
2021/01/30 07:38:14;;;;;;;11.30;6.20;;;32.30;99.90;;;;;;5052260;28;20476;-62
2021/01/30 07:41:04;;;;;;;12.27;6.50;;;31.40;99.90;;;;;;5052821;28;20418;-61
2021/01/30 07:43:39;;;;;;;;;;;30.80;99.90;;;;;;5053818;28;20107;-62
2021/01/30 07:46:18;;;;;;;14.48;7.88;;;30.30;99.90;;;;;;5053355;28;20326;-62
2021/01/30 07:48:52;;;;;;;14.45;10.20;;;30.00;99.90;;;;;;5053399;28;20026;-62
2021/01/30 07:51:32;;;;;;;13.25;7.93;;;29.80;99.90;;;;;;5053691;28;20486;-62
2021/01/30 07:53:59;;;;;;;;;;;29.30;99.90;;;;;;5053718;28;20021;-61
2021/01/30 07:57:11;;;;;;;11.88;7.70;;;29.00;99.90;;;;;;5053352;28;20014;-61
2021/01/30 07:59:53;;;;;;;15.85;9.90;;;28.60;99.90;;;;;;5053371;28;20029;-61
2021/01/30 08:02:32;;;;;;;13.20;7.50;;;28.20;99.90;;;;;;5051855;28;20021;-62
2021/01/30 08:05:36;;;;;;;14.18;9.23;;;27.80;99.90;;;;;;5053365;28;20092;-62
2021/01/30 08:08:12;;;;;;;15.50;8.82;;;27.50;99.90;;;;;;5053477;28;20102;-62
2021/01/30 08:10:55;;;;;;;12.95;8.10;;;27.30;99.90;;;;;;5052771;28;20102;-61
2021/01/30 08:13:44;;;;;;;17.92;9.70;;;27.10;99.90;;;;;;5051699;28;20115;-60
2021/01/30 08:16:31;;;;;;;15.13;10.00;;;27.10;99.90;;;;;;5052945;28;20021;-63
2021/01/30 08:19:05;;;;;;;20.23;11.35;;;27.00;99.90;;;;;;5053125;28;20478;-65
2021/01/30 08:21:57;;;;;;;16.05;9.05;;;26.90;99.90;;;;;;5053014;28;20086;-60
2021/01/30 08:24:49;;;;;;;16.63;10.57;;;26.90;99.90;;;;;;5053050;28;20067;-60
2021/01/30 08:27:43;;;;;;;13.90;10.85;;;26.90;99.90;;;;;;5045028;28;20068;-60
2021/01/30 08:30:21;;;;;;;15.35;9.95;;;26.80;99.90;;;;;;5046699;28;20041;-60
2021/01/30 08:32:56;;;;;;;14.50;10.73;;;26.70;99.90;;;;;;5053171;28;20029;-60
2021/01/30 08:35:26;;;;;;;21.83;11.80;;;26.50;99.90;;;;;;5052717;28;20032;-60
2021/01/30 08:38:01;;;;;;;20.90;12.38;;;26.30;99.90;;;;;;5053147;28;20473;-60
2021/01/30 08:40:47;;;;;;;17.73;12.73;;;26.10;99.90;;;;;;5052809;28;20033;-59
2021/01/30 08:43:47;;;;;;;19.70;13.00;;;25.90;99.90;;;;;;5052762;28;20033;-60
2021/01/30 08:46:40;;;;;;;16.45;12.77;;;25.80;99.90;;;;;;5049458;28;20388;-62
2021/01/30 08:49:14;;;;;;;17.38;13.10;;;25.50;99.90;;;;;;5052996;28;20036;-60
2021/01/30 08:51:47;;;;;;;18.63;13.50;;;25.40;99.90;;;;;;5053516;28;20021;-60
2021/01/30 08:54:46;;;;;;;18.15;13.35;;;25.30;99.90;;;;;;5056581;28;20036;-61
2021/01/30 08:57:32;;;;;;;17.05;13.30;;;25.10;99.90;;;;;;5055015;28;20431;-57
2021/01/30 09:00:10;;;;;;;20.83;12.35;;;25.10;99.90;;;;;;5056402;28;20122;-55
2021/01/30 09:02:37;;;;;;;17.70;12.73;;;25.00;99.90;;;;;;5056306;28;20062;-57
2021/01/30 09:05:21;;;;;;;13.30;11.90;;;24.90;99.90;;;;;;5056507;28;20028;-56
2021/01/30 09:07:50;;;;;;;14.65;10.95;;;24.80;99.90;;;;;;5056226;28;20021;-56
2021/01/30 09:10:37;;;;;;;14.38;12.88;;;24.70;99.90;;;;;;5056144;28;20083;-56
2021/01/30 09:13:04;;;;;;;16.55;13.13;;;24.60;99.90;;;;;;5055896;28;20033;-57
2021/01/30 09:15:44;;;;;;;13.35;12.02;;;24.50;99.90;;;;;;5055893;28;20070;-57
2021/01/30 09:18:23;;;;;;;17.52;12.73;;;24.40;99.90;;;;;;5056070;28;20024;-57
2021/01/30 09:21:11;;;;;;;15.27;12.80;;;24.30;99.90;;;;;;5055978;28;20032;-56
2021/01/30 09:23:56;;;;;;;14.48;13.07;;;24.30;99.90;;;;;;5055937;28;20025;-57
2021/01/30 09:26:51;;;;;;;16.73;11.90;;;24.20;99.90;;;;;;5055957;28;20388;-58
2021/01/30 09:29:34;;;;;;;18.52;12.50;;;24.20;99.90;;;;;;5055772;28;20397;-57
2021/01/30 09:32:02;;;;;;;15.40;13.48;;;24.20;99.90;;;;;;5055740;28;20469;-57
2021/01/30 09:34:44;;;;;;;15.23;13.80;;;24.20;99.90;;;;;;5055730;28;20025;-57
2021/01/30 09:37:34;;;;;;;15.68;14.25;;;24.10;99.90;;;;;;5055630;28;20027;-54
2021/01/30 09:40:03;;;;;;;14.90;13.60;;;24.10;99.90;;;;;;5055751;28;20014;-59
2021/01/30 09:42:31;;;;;;;13.50;12.38;;;24.00;99.90;;;;;;5055630;28;20079;-58
2021/01/30 09:45:07;;;;;;;14.05;12.88;;;24.00;99.90;;;;;;5055485;28;20517;-57
2021/01/30 09:47:42;;;;;;;13.48;12.07;;;23.90;99.90;;;;;;5055537;28;20477;-57
2021/01/30 09:50:14;;;;;;;13.93;12.38;;;23.80;99.90;;;;;;5055479;28;20025;-56
2021/01/30 09:52:58;;;;;;;15.20;13.60;;;23.80;99.90;;;;;;5055340;28;20029;-56
2021/01/30 09:55:27;;;;;;;14.38;13.23;;;23.70;99.90;;;;;;5055460;28;20052;-59
2021/01/30 09:58:13;;;;;;;14.05;12.65;;;23.60;99.90;;;;;;5055365;28;20127;-57
2021/01/30 10:00:43;;;;;;;14.57;13.52;;;23.60;99.90;;;;;;5055314;28;20380;-57
2021/01/30 10:03:21;;;;;;;13.00;11.95;;;23.60;99.90;;;;;;5054560;28;20055;-57
2021/01/30 10:05:51;;;;;;;15.77;14.27;;;23.60;99.90;;;;;;5055112;28;20051;-57
2021/01/30 10:08:33;;;;;;;15.47;14.10;;;23.60;99.90;;;;;;5055092;28;20107;-58
2021/01/30 10:11:12;;;;;;;15.35;14.02;;;23.60;99.90;;;;;;5054815;28;20267;-56
2021/01/30 10:13:44;;;;;;;14.95;13.95;;;23.60;99.90;;;;;;5054952;28;20075;-56
2021/01/30 10:16:22;;;;;;;16.42;14.75;;;23.60;99.90;;;;;;5055019;28;20481;-57
2021/01/30 10:18:59;;;;;;;14.40;13.40;;;23.60;99.90;;;;;;5055055;28;20059;-57
2021/01/30 10:21:39;;;;;;;15.18;14.02;;;23.60;99.90;;;;;;5054966;28;20047;-57
2021/01/30 10:24:14;;;;;;;14.48;13.35;;;23.60;99.90;;;;;;5054860;28;20032;-55
2021/01/30 10:26:41;;;;;;;15.25;13.95;;;23.60;99.90;;;;;;5054857;28;20053;-56
2021/01/30 10:29:14;;;;;;;15.23;13.93;;;23.60;99.90;;;;;;5054643;28;20017;-57
2021/01/30 10:31:50;;;;;;;14.90;13.80;;;23.60;99.90;;;;;;5054703;28;20021;-57
2021/01/30 10:34:24;;;;;;;15.15;13.95;;;23.60;99.90;;;;;;5054671;28;20512;-56
2021/01/30 10:37:28;;;;;;;14.60;13.20;;;23.50;99.90;;;;;;5055043;28;20028;-57
2021/01/30 10:40:03;;;;;;;13.98;12.88;;;23.50;99.90;;;;;;5031048;28;20067;-55
2021/01/30 10:42:34;;;;;;;14.48;13.30;;;23.40;99.90;;;;;;5054407;28;20028;-52
2021/01/30 10:45:18;;;;;;;14.75;13.70;;;23.40;99.90;;;;;;5054374;28;20539;-56
2021/01/30 10:47:51;;;;;;;16.35;14.93;;;23.30;99.90;;;;;;5054448;28;20358;-55
2021/01/30 10:50:28;;;;;;;15.60;14.50;;;23.30;99.90;;;;;;5054578;28;20025;-56
2021/01/30 10:53:15;;;;;;;16.15;14.73;;;23.30;99.90;;;;;;5054454;28;20028;-57
2021/01/30 10:55:42;;;;;;;15.70;14.70;;;23.30;99.90;;;;;;5054312;28;20366;-60
2021/01/30 10:58:19;;;;;;;14.75;13.52;;;23.40;99.90;;;;;;5052811;28;20064;-56
2021/01/30 11:01:10;;;;;;;11.65;10.55;;;23.50;99.90;;;;;;5054135;28;20366;-54
2021/01/30 11:03:45;;;;;;;15.45;14.35;;;23.40;99.90;;;;;;5054046;28;20033;-57
2021/01/30 11:06:31;;;;;;;15.82;14.73;;;23.40;99.90;;;;;;5053888;28;20043;-56
2021/01/30 11:09:22;;;;;;;15.07;14.15;;;23.30;99.90;;;;;;5054091;28;20420;-57
2021/01/30 11:11:52;;;;;;;15.27;14.27;;;23.40;99.90;;;;;;5053512;28;20055;-57
2021/01/30 11:14:32;;;;;;;15.20;14.20;;;23.40;99.90;;;;;;5053904;28;20024;-56
2021/01/30 11:17:01;;;;;;;14.30;13.50;;;23.40;99.90;;;;;;5053693;28;20076;-57
2021/01/30 11:19:34;;;;;;;14.25;13.35;;;23.50;99.90;;;;;;5053766;28;20033;-56
2021/01/30 11:22:11;;;;;;;13.98;13.02;;;23.40;99.90;;;;;;5053810;28;20028;-56
2021/01/30 11:24:47;;;;;;;13.07;12.30;;;23.40;99.90;;;;;;5053728;28;20037;-56
2021/01/30 11:27:45;;;;;;;13.85;13.00;;;23.30;99.90;;;;;;5053898;28;20032;-56
2021/01/30 11:30:25;;;;;;;14.27;13.50;;;23.30;99.90;;;;;;5053478;28;20028;-57
2021/01/30 11:33:17;;;;;;;14.52;13.68;;;23.20;99.90;;;;;;5052530;28;20021;-56
2021/01/30 11:35:46;;;;;;;14.43;13.63;;;23.20;99.90;;;;;;5053468;28;20420;-55
2021/01/30 11:38:20;;;;;;;14.02;13.30;;;23.20;99.90;;;;;;5053347;28;20103;-57
2021/01/30 11:40:52;;;;;;;13.93;12.95;;;23.20;99.90;;;;;;5053484;28;20452;-53
2021/01/30 11:43:21;;;;;;;15.20;14.30;;;23.20;99.90;;;;;;5053336;28;20108;-57
2021/01/30 11:45:51;;;;;;;14.38;13.57;;;23.20;99.90;;;;;;5053239;28;20055;-55
2021/01/30 11:48:21;;;;;;;14.80;13.80;;;23.10;99.90;;;;;;5053217;28;20091;-57
2021/01/30 11:50:49;;;;;;;15.13;14.23;;;23.10;99.90;;;;;;5053329;28;20021;-56
2021/01/30 11:53:21;;;;;;;13.18;12.38;;;23.00;99.90;;;;;;5053238;28;20374;-57
2021/01/30 11:55:49;;;;;;;13.55;12.85;;;23.00;99.90;;;;;;5053280;28;20029;-57
2021/01/30 11:58:18;;;;;;;14.45;13.55;;;22.90;99.90;;;;;;5053295;28;20028;-56
2021/01/30 12:00:46;;;;;;;15.18;14.27;;;22.80;99.90;;;;;;5053295;28;20021;-56
2021/01/30 12:03:25;;;;;;;15.88;14.80;;;22.80;99.90;;;;;;5053131;28;20036;-56
2021/01/30 12:05:52;;;;;;;14.38;13.60;;;22.80;99.90;;;;;;5053376;28;20108;-58
2021/01/30 12:08:20;;;;;;;14.40;13.40;;;22.70;99.90;;;;;;5053185;28;20017;-58
2021/01/30 12:10:47;;;;;;;13.32;12.50;;;22.70;99.90;;;;;;5052913;28;20029;-59
2021/01/30 12:13:15;;;;;;;13.98;13.18;;;22.60;99.90;;;;;;5053104;28;20059;-54
2021/01/30 12:15:42;;;;;;;12.88;12.13;;;22.70;99.90;;;;;;5053035;28;20036;-54
2021/01/30 12:18:13;;;;;;;13.98;12.80;;;22.60;99.90;;;;;;5053084;28;20059;-55
2021/01/30 12:20:41;;;;;;;14.75;13.90;;;22.60;99.90;;;;;;5053057;28;20104;-57
2021/01/30 12:23:09;;;;;;;14.77;13.88;;;22.60;99.90;;;;;;5052875;28;20022;-57
2021/01/30 12:25:37;;;;;;;14.77;13.77;;;22.60;99.90;;;;;;5053038;28;20025;-58
2021/01/30 12:28:06;;;;;;;14.80;13.90;;;22.60;99.90;;;;;;5056138;28;20074;-57
2021/01/30 12:30:37;;;;;;;15.02;14.23;;;22.60;99.90;;;;;;5057021;28;20025;-57
2021/01/30 12:33:06;;;;;;;14.98;14.10;;;22.60;99.90;;;;;;5057231;28;20025;-58
2021/01/30 12:35:35;;;;;;;14.60;13.63;;;22.60;99.90;;;;;;5056948;28;20033;-58
2021/01/30 12:38:05;;;;;;;14.23;13.43;;;22.60;99.90;;;;;;5057009;28;20049;-57
2021/01/30 12:40:36;;;;;;;14.98;14.18;;;22.50;99.90;;;;;;5056892;28;20025;-55
2021/01/30 12:43:04;;;;;;;15.00;14.10;;;22.50;99.90;;;;;;5056900;28;20047;-58
2021/01/30 12:45:32;;;;;;;14.65;13.85;;;22.50;99.90;;;;;;5056874;28;20493;-56
2021/01/30 12:48:01;;;;;;;14.95;13.93;;;22.50;99.90;;;;;;5056700;28;20033;-58
2021/01/30 12:50:30;;;;;;;14.23;13.32;;;22.40;99.90;;;;;;5056673;28;20455;-57
2021/01/30 12:52:58;;;;;;;15.30;14.30;;;22.40;99.90;;;;;;5056767;28;20198;-56
2021/01/30 12:55:26;;;;;;;15.48;14.52;;;22.30;99.90;;;;;;5056852;28;20107;-57
2021/01/30 12:57:54;;;;;;;16.08;15.05;;;22.30;99.90;;;;;;5056625;28;20055;-58
2021/01/30 13:00:24;;;;;;;17.38;16.23;;;22.30;99.90;;;;;;5056509;28;20039;-57
2021/01/30 13:02:51;;;;;;;16.40;15.40;;;22.30;99.90;;;;;;5056771;28;20048;-55
2021/01/30 13:05:20;;;;;;;16.33;15.23;;;22.20;99.90;;;;;;5056467;28;20416;-57
2021/01/30 13:07:48;;;;;;;16.38;15.32;;;22.20;99.90;;;;;;5056392;28;20035;-56
2021/01/30 13:10:18;;;;;;;17.52;16.40;;;22.20;99.90;;;;;;5056242;28;20035;-54
2021/01/30 13:12:46;;;;;;;16.77;15.85;;;22.10;99.90;;;;;;5056525;28;20068;-55
2021/01/30 13:15:14;;;;;;;17.33;16.17;;;22.10;99.90;;;;;;5056287;28;20032;-57
2021/01/30 13:17:41;;;;;;;16.88;15.88;;;22.20;99.90;;;;;;5056247;28;20017;-58
2021/01/30 13:20:10;;;;;;;16.48;15.65;;;22.20;99.90;;;;;;5056207;28;20017;-55
2021/01/30 13:22:38;;;;;;;16.73;15.82;;;22.10;99.90;;;;;;5056102;28;20389;-57
2021/01/30 13:25:07;;;;;;;16.92;15.95;;;22.10;99.90;;;;;;5056337;28;20017;-56
2021/01/30 13:27:35;;;;;;;16.10;15.23;;;22.10;99.90;;;;;;5054697;28;20021;-58